sensor_id;sensor_type;location;lat;lon;timestamp;temperature;humidity
71047;SHT31;58703;48.978;8.982;2024-01-30T00:02:17;-1.00;99.99
71047;SHT31;58703;48.978;8.982;2024-01-30T00:04:45;-1.12;99.99
71047;SHT31;58703;48.978;8.982;2024-01-30T00:07:11;-0.95;99.99
71047;SHT31;58703;48.978;8.982;2024-01-30T00:09:39;-0.71;99.99
71047;SHT31;58703;48.978;8.982;2024-01-30T00:12:06;-0.72;99.99
71047;SHT31;58703;48.978;8.982;2024-01-30T00:14:33;-0.75;99.99
71047;SHT31;58703;48.978;8.982;2024-01-30T00:17:00;-0.82;99.99
71047;SHT31;58703;48.978;8.982;2024-01-30T00:19:28;-0.99;99.99
71047;SHT31;58703;48.978;8.982;2024-01-30T00:21:55;-0.99;99.99
71047;SHT31;58703;48.978;8.982;2024-01-30T00:24:22;-1.05;99.99
71047;SHT31;58703;48.978;8.982;2024-01-30T00:26:49;-1.09;99.99
71047;SHT31;58703;48.978;8.982;2024-01-30T00:29:16;-1.02;99.99
71047;SHT31;58703;48.978;8.982;2024-01-30T00:31:46;-0.92;99.99
71047;SHT31;58703;48.978;8.982;2024-01-30T00:34:13;-0.88;99.99
71047;SHT31;58703;48.978;8.982;2024-01-30T00:36:40;-0.92;99.99
71047;SHT31;58703;48.978;8.982;2024-01-30T00:39:08;-1.10;99.99
71047;SHT31;58703;48.978;8.982;2024-01-30T00:41:36;-1.12;99.99
71047;SHT31;58703;48.978;8.982;2024-01-30T00:44:03;-1.06;99.99
71047;SHT31;58703;48.978;8.982;2024-01-30T00:46:29;-0.99;99.99
71047;SHT31;58703;48.978;8.982;2024-01-30T00:48:56;-1.02;99.99
71047;SHT31;58703;48.978;8.982;2024-01-30T00:51:22;-0.99;99.99
71047;SHT31;58703;48.978;8.982;2024-01-30T00:53:54;-1.06;99.99
71047;SHT31;58703;48.978;8.982;2024-01-30T00:56:21;-1.15;99.99
71047;SHT31;58703;48.978;8.982;2024-01-30T00:58:46;-1.02;99.99
71047;SHT31;58703;48.978;8.982;2024-01-30T01:01:13;-1.13;99.99
71047;SHT31;58703;48.978;8.982;2024-01-30T01:03:41;-1.15;99.99
71047;SHT31;58703;48.978;8.982;2024-01-30T01:06:10;-0.92;99.99
71047;SHT31;58703;48.978;8.982;2024-01-30T01:08:37;-1.05;99.99
71047;SHT31;58703;48.978;8.982;2024-01-30T01:11:04;-1.10;99.99
71047;SHT31;58703;48.978;8.982;2024-01-30T01:13:30;-1.19;99.99
71047;SHT31;58703;48.978;8.982;2024-01-30T01:15:56;-1.10;99.99
71047;SHT31;58703;48.978;8.982;2024-01-30T01:18:25;-1.10;99.99
71047;SHT31;58703;48.978;8.982;2024-01-30T01:20:54;-1.07;99.99
71047;SHT31;58703;48.978;8.982;2024-01-30T01:23:20;-1.05;99.99
71047;SHT31;58703;48.978;8.982;2024-01-30T01:25:47;-1.13;99.99
71047;SHT31;58703;48.978;8.982;2024-01-30T01:28:13;-1.12;99.99
71047;SHT31;58703;48.978;8.982;2024-01-30T01:30:40;-1.29;99.99
71047;SHT31;58703;48.978;8.982;2024-01-30T01:33:06;-1.46;99.99
71047;SHT31;58703;48.978;8.982;2024-01-30T01:35:32;-1.39;99.99
71047;SHT31;58703;48.978;8.982;2024-01-30T01:37:58;-1.47;99.99
71047;SHT31;58703;48.978;8.982;2024-01-30T01:40:27;-1.44;99.99
71047;SHT31;58703;48.978;8.982;2024-01-30T01:42:56;-1.58;99.99
71047;SHT31;58703;48.978;8.982;2024-01-30T01:45:22;-1.48;99.99
71047;SHT31;58703;48.978;8.982;2024-01-30T01:47:51;-1.33;99.99
71047;SHT31;58703;48.978;8.982;2024-01-30T01:50:18;-1.36;99.99
71047;SHT31;58703;48.978;8.982;2024-01-30T01:52:50;-1.42;99.99
71047;SHT31;58703;48.978;8.982;2024-01-30T01:55:19;-1.46;99.99
71047;SHT31;58703;48.978;8.982;2024-01-30T01:57:53;-1.51;99.99
71047;SHT31;58703;48.978;8.982;2024-01-30T02:00:20;-1.67;99.99
71047;SHT31;58703;48.978;8.982;2024-01-30T02:02:49;-1.68;99.99
71047;SHT31;58703;48.978;8.982;2024-01-30T02:05:15;-1.66;99.99
71047;SHT31;58703;48.978;8.982;2024-01-30T02:07:42;-1.51;99.99
71047;SHT31;58703;48.978;8.982;2024-01-30T02:10:10;-1.64;99.99
71047;SHT31;58703;48.978;8.982;2024-01-30T02:12:37;-1.71;99.99
71047;SHT31;58703;48.978;8.982;2024-01-30T02:15:04;-1.75;99.99
71047;SHT31;58703;48.978;8.982;2024-01-30T02:17:32;-1.58;99.99
71047;SHT31;58703;48.978;8.982;2024-01-30T02:19:59;-1.56;99.99
71047;SHT31;58703;48.978;8.982;2024-01-30T02:22:25;-1.50;99.99
71047;SHT31;58703;48.978;8.982;2024-01-30T02:24:52;-1.54;99.99
71047;SHT31;58703;48.978;8.982;2024-01-30T02:27:19;-1.48;99.99
71047;SHT31;58703;48.978;8.982;2024-01-30T02:29:49;-1.54;99.99
71047;SHT31;58703;48.978;8.982;2024-01-30T02:32:16;-1.70;99.99
71047;SHT31;58703;48.978;8.982;2024-01-30T02:34:43;-1.71;99.99
71047;SHT31;58703;48.978;8.982;2024-01-30T02:37:09;-1.75;99.99
71047;SHT31;58703;48.978;8.982;2024-01-30T02:39:36;-1.80;99.99
71047;SHT31;58703;48.978;8.982;2024-01-30T02:42:02;-1.92;99.99
71047;SHT31;58703;48.978;8.982;2024-01-30T02:44:28;-1.97;99.99
71047;SHT31;58703;48.978;8.982;2024-01-30T02:46:55;-1.89;99.99
71047;SHT31;58703;48.978;8.982;2024-01-30T02:49:21;-1.92;99.99
71047;SHT31;58703;48.978;8.982;2024-01-30T02:51:49;-1.80;99.99
71047;SHT31;58703;48.978;8.982;2024-01-30T02:54:16;-1.94;99.99
71047;SHT31;58703;48.978;8.982;2024-01-30T02:56:42;-2.01;99.99
71047;SHT31;58703;48.978;8.982;2024-01-30T02:59:09;-1.97;99.99
71047;SHT31;58703;48.978;8.982;2024-01-30T03:01:46;-1.78;99.99
71047;SHT31;58703;48.978;8.982;2024-01-30T03:04:13;-1.74;99.99
71047;SHT31;58703;48.978;8.982;2024-01-30T03:06:45;-1.74;99.99
71047;SHT31;58703;48.978;8.982;2024-01-30T03:09:11;-1.85;99.99
71047;SHT31;58703;48.978;8.982;2024-01-30T03:11:43;-1.81;99.99
71047;SHT31;58703;48.978;8.982;2024-01-30T03:14:10;-1.84;99.99
71047;SHT31;58703;48.978;8.982;2024-01-30T03:16:39;-1.98;99.99
71047;SHT31;58703;48.978;8.982;2024-01-30T03:19:08;-1.99;99.99
71047;SHT31;58703;48.978;8.982;2024-01-30T03:21:35;-2.05;99.99
71047;SHT31;58703;48.978;8.982;2024-01-30T03:24:02;-2.02;99.99
71047;SHT31;58703;48.978;8.982;2024-01-30T03:26:30;-2.11;99.99
71047;SHT31;58703;48.978;8.982;2024-01-30T03:28:58;-2.09;99.99
71047;SHT31;58703;48.978;8.982;2024-01-30T03:31:25;-2.03;99.99
71047;SHT31;58703;48.978;8.982;2024-01-30T03:33:52;-2.02;99.99
71047;SHT31;58703;48.978;8.982;2024-01-30T03:36:19;-2.01;99.99
71047;SHT31;58703;48.978;8.982;2024-01-30T03:38:46;-2.06;99.99
71047;SHT31;58703;48.978;8.982;2024-01-30T03:41:12;-2.08;99.99
71047;SHT31;58703;48.978;8.982;2024-01-30T03:43:38;-2.11;99.99
71047;SHT31;58703;48.978;8.982;2024-01-30T03:46:04;-2.13;99.99
71047;SHT31;58703;48.978;8.982;2024-01-30T03:48:31;-2.08;99.99
71047;SHT31;58703;48.978;8.982;2024-01-30T03:50:58;-1.99;99.99
71047;SHT31;58703;48.978;8.982;2024-01-30T03:53:23;-1.97;99.99
71047;SHT31;58703;48.978;8.982;2024-01-30T03:55:49;-2.02;99.99
71047;SHT31;58703;48.978;8.982;2024-01-30T03:58:16;-1.95;99.99
71047;SHT31;58703;48.978;8.982;2024-01-30T04:00:43;-2.06;99.99
71047;SHT31;58703;48.978;8.982;2024-01-30T04:03:11;-2.21;99.99
71047;SHT31;58703;48.978;8.982;2024-01-30T04:05:38;-2.29;99.99
71047;SHT31;58703;48.978;8.982;2024-01-30T04:08:05;-2.36;99.99
71047;SHT31;58703;48.978;8.982;2024-01-30T04:10:35;-2.28;99.99
71047;SHT31;58703;48.978;8.982;2024-01-30T04:13:02;-2.31;99.99
71047;SHT31;58703;48.978;8.982;2024-01-30T04:15:27;-2.35;99.99
71047;SHT31;58703;48.978;8.982;2024-01-30T04:17:59;-2.36;99.99
71047;SHT31;58703;48.978;8.982;2024-01-30T04:20:26;-2.46;99.99
71047;SHT31;58703;48.978;8.982;2024-01-30T04:22:53;-2.41;99.99
71047;SHT31;58703;48.978;8.982;2024-01-30T04:25:20;-2.38;99.99
71047;SHT31;58703;48.978;8.982;2024-01-30T04:27:46;-2.18;99.99
71047;SHT31;58703;48.978;8.982;2024-01-30T04:30:14;-2.19;99.99
71047;SHT31;58703;48.978;8.982;2024-01-30T04:32:39;-2.11;99.99
71047;SHT31;58703;48.978;8.982;2024-01-30T04:35:06;-2.18;99.99
71047;SHT31;58703;48.978;8.982;2024-01-30T04:37:32;-2.36;99.99
71047;SHT31;58703;48.978;8.982;2024-01-30T04:39:58;-2.38;99.99
71047;SHT31;58703;48.978;8.982;2024-01-30T04:42:24;-2.29;99.99
71047;SHT31;58703;48.978;8.982;2024-01-30T04:44:52;-2.29;99.99
71047;SHT31;58703;48.978;8.982;2024-01-30T04:47:17;-2.39;99.99
71047;SHT31;58703;48.978;8.982;2024-01-30T04:49:45;-2.48;99.99
71047;SHT31;58703;48.978;8.982;2024-01-30T04:52:13;-2.53;99.99
71047;SHT31;58703;48.978;8.982;2024-01-30T04:54:40;-2.50;99.99
71047;SHT31;58703;48.978;8.982;2024-01-30T04:57:05;-2.50;99.99
71047;SHT31;58703;48.978;8.982;2024-01-30T04:59:36;-2.41;99.99
71047;SHT31;58703;48.978;8.982;2024-01-30T05:02:01;-2.45;99.99
71047;SHT31;58703;48.978;8.982;2024-01-30T05:04:29;-2.46;99.99
71047;SHT31;58703;48.978;8.982;2024-01-30T05:06:57;-2.45;99.99
71047;SHT31;58703;48.978;8.982;2024-01-30T05:09:24;-2.46;99.99
71047;SHT31;58703;48.978;8.982;2024-01-30T05:11:51;-2.57;99.99
71047;SHT31;58703;48.978;8.982;2024-01-30T05:14:18;-2.53;99.99
71047;SHT31;58703;48.978;8.982;2024-01-30T05:16:45;-2.48;99.99
71047;SHT31;58703;48.978;8.982;2024-01-30T05:19:14;-2.42;99.99
71047;SHT31;58703;48.978;8.982;2024-01-30T05:21:42;-2.49;99.99
71047;SHT31;58703;48.978;8.982;2024-01-30T05:24:08;-2.56;99.99
71047;SHT31;58703;48.978;8.982;2024-01-30T05:26:36;-2.48;99.99
71047;SHT31;58703;48.978;8.982;2024-01-30T05:29:04;-2.50;99.99
71047;SHT31;58703;48.978;8.982;2024-01-30T05:31:32;-2.56;99.99
71047;SHT31;58703;48.978;8.982;2024-01-30T05:33:59;-2.49;99.99
71047;SHT31;58703;48.978;8.982;2024-01-30T05:36:26;-2.56;99.99
71047;SHT31;58703;48.978;8.982;2024-01-30T05:38:54;-2.48;99.99
71047;SHT31;58703;48.978;8.982;2024-01-30T05:41:20;-2.38;99.99
71047;SHT31;58703;48.978;8.982;2024-01-30T05:43:48;-2.52;99.99
71047;SHT31;58703;48.978;8.982;2024-01-30T05:46:15;-2.49;99.99
71047;SHT31;58703;48.978;8.982;2024-01-30T05:48:41;-2.42;99.99
71047;SHT31;58703;48.978;8.982;2024-01-30T05:51:18;-2.54;99.99
71047;SHT31;58703;48.978;8.982;2024-01-30T05:53:45;-2.60;99.99
71047;SHT31;58703;48.978;8.982;2024-01-30T05:56:15;-2.64;99.99
71047;SHT31;58703;48.978;8.982;2024-01-30T05:58:42;-2.66;99.99
71047;SHT31;58703;48.978;8.982;2024-01-30T06:01:09;-2.60;99.99
71047;SHT31;58703;48.978;8.982;2024-01-30T06:03:36;-2.52;99.99
71047;SHT31;58703;48.978;8.982;2024-01-30T06:06:03;-2.52;99.99
71047;SHT31;58703;48.978;8.982;2024-01-30T06:08:29;-2.48;99.99
71047;SHT31;58703;48.978;8.982;2024-01-30T06:10:58;-2.52;99.99
71047;SHT31;58703;48.978;8.982;2024-01-30T06:13:24;-2.67;99.99
71047;SHT31;58703;48.978;8.982;2024-01-30T06:15:50;-2.72;99.99
71047;SHT31;58703;48.978;8.982;2024-01-30T06:18:16;-2.56;99.99
71047;SHT31;58703;48.978;8.982;2024-01-30T06:20:42;-2.56;99.99
71047;SHT31;58703;48.978;8.982;2024-01-30T06:23:09;-2.54;99.99
71047;SHT31;58703;48.978;8.982;2024-01-30T06:25:36;-2.59;99.99
71047;SHT31;58703;48.978;8.982;2024-01-30T06:28:04;-2.67;99.99
71047;SHT31;58703;48.978;8.982;2024-01-30T06:30:31;-2.72;99.99
71047;SHT31;58703;48.978;8.982;2024-01-30T06:32:57;-2.77;99.99
71047;SHT31;58703;48.978;8.982;2024-01-30T06:35:24;-2.84;99.99
71047;SHT31;58703;48.978;8.982;2024-01-30T06:37:50;-2.76;99.99
71047;SHT31;58703;48.978;8.982;2024-01-30T06:40:17;-2.70;99.99
71047;SHT31;58703;48.978;8.982;2024-01-30T06:42:42;-2.69;99.99
71047;SHT31;58703;48.978;8.982;2024-01-30T06:45:09;-2.76;99.99
71047;SHT31;58703;48.978;8.982;2024-01-30T06:47:35;-2.69;99.99
71047;SHT31;58703;48.978;8.982;2024-01-30T06:50:02;-2.62;99.99
71047;SHT31;58703;48.978;8.982;2024-01-30T06:52:30;-2.49;99.99
71047;SHT31;58703;48.978;8.982;2024-01-30T06:54:57;-2.48;99.99
71047;SHT31;58703;48.978;8.982;2024-01-30T06:57:24;-2.54;99.99
71047;SHT31;58703;48.978;8.982;2024-01-30T06:59:49;-2.62;99.99
71047;SHT31;58703;48.978;8.982;2024-01-30T07:02:16;-2.67;99.99
71047;SHT31;58703;48.978;8.982;2024-01-30T07:04:44;-2.70;99.99
71047;SHT31;58703;48.978;8.982;2024-01-30T07:07:11;-2.56;99.99
71047;SHT31;58703;48.978;8.982;2024-01-30T07:09:39;-2.42;99.99
71047;SHT31;58703;48.978;8.982;2024-01-30T07:12:07;-2.33;99.99
71047;SHT31;58703;48.978;8.982;2024-01-30T07:14:35;-2.31;99.99
71047;SHT31;58703;48.978;8.982;2024-01-30T07:17:02;-2.29;99.99
71047;SHT31;58703;48.978;8.982;2024-01-30T07:19:29;-2.18;99.99
71047;SHT31;58703;48.978;8.982;2024-01-30T07:21:58;-2.25;99.99
71047;SHT31;58703;48.978;8.982;2024-01-30T07:24:24;-2.13;99.99
71047;SHT31;58703;48.978;8.982;2024-01-30T07:26:52;-2.16;99.99
71047;SHT31;58703;48.978;8.982;2024-01-30T07:29:19;-2.13;99.99
71047;SHT31;58703;48.978;8.982;2024-01-30T07:31:47;-2.02;99.99
71047;SHT31;58703;48.978;8.982;2024-01-30T07:34:12;-1.99;99.99
71047;SHT31;58703;48.978;8.982;2024-01-30T07:36:40;-1.98;99.99
71047;SHT31;58703;48.978;8.982;2024-01-30T07:39:07;-2.02;99.99
71047;SHT31;58703;48.978;8.982;2024-01-30T07:41:33;-2.03;99.99
71047;SHT31;58703;48.978;8.982;2024-01-30T07:43:59;-1.85;99.99
71047;SHT31;58703;48.978;8.982;2024-01-30T07:46:26;-1.71;99.99
71047;SHT31;58703;48.978;8.982;2024-01-30T07:48:53;-1.54;99.99
71047;SHT31;58703;48.978;8.982;2024-01-30T07:51:22;-1.33;99.99
71047;SHT31;58703;48.978;8.982;2024-01-30T07:53:49;-1.32;99.99
71047;SHT31;58703;48.978;8.982;2024-01-30T07:56:18;-1.36;99.99
71047;SHT31;58703;48.978;8.982;2024-01-30T07:58:45;-1.25;99.99
71047;SHT31;58703;48.978;8.982;2024-01-30T08:01:11;-1.12;99.99
71047;SHT31;58703;48.978;8.982;2024-01-30T08:03:39;-1.03;99.99
71047;SHT31;58703;48.978;8.982;2024-01-30T08:06:07;-0.78;99.99
71047;SHT31;58703;48.978;8.982;2024-01-30T08:08:34;-0.55;99.99
71047;SHT31;58703;48.978;8.982;2024-01-30T08:11:01;-0.61;99.34
71047;SHT31;58703;48.978;8.982;2024-01-30T08:13:28;-0.57;99.99
71047;SHT31;58703;48.978;8.982;2024-01-30T08:15:54;-0.41;99.99
71047;SHT31;58703;48.978;8.982;2024-01-30T08:18:19;-0.24;99.93
71047;SHT31;58703;48.978;8.982;2024-01-30T08:20:45;-0.14;99.52
71047;SHT31;58703;48.978;8.982;2024-01-30T08:23:13;-0.06;99.27
71047;SHT31;58703;48.978;8.982;2024-01-30T08:25:40;0.09;99.30
71047;SHT31;58703;48.978;8.982;2024-01-30T08:28:06;0.10;99.37
71047;SHT31;58703;48.978;8.982;2024-01-30T08:30:33;0.28;99.63
71047;SHT31;58703;48.978;8.982;2024-01-30T08:33:00;0.32;98.70
71047;SHT31;58703;48.978;8.982;2024-01-30T08:35:27;0.15;97.80
71047;SHT31;58703;48.978;8.982;2024-01-30T08:37:54;0.14;98.76
71047;SHT31;58703;48.978;8.982;2024-01-30T08:40:21;0.10;98.46
71047;SHT31;58703;48.978;8.982;2024-01-30T08:42:49;0.22;98.72
71047;SHT31;58703;48.978;8.982;2024-01-30T08:45:16;0.42;99.16
71047;SHT31;58703;48.978;8.982;2024-01-30T08:47:44;0.58;98.27
71047;SHT31;58703;48.978;8.982;2024-01-30T08:50:11;0.58;97.78
71047;SHT31;58703;48.978;8.982;2024-01-30T08:52:37;0.48;97.52
71047;SHT31;58703;48.978;8.982;2024-01-30T08:55:05;0.37;97.48
71047;SHT31;58703;48.978;8.982;2024-01-30T08:57:32;0.81;98.66
71047;SHT31;58703;48.978;8.982;2024-01-30T09:00:00;1.19;97.42
71047;SHT31;58703;48.978;8.982;2024-01-30T09:02:26;1.51;96.17
71047;SHT31;58703;48.978;8.982;2024-01-30T09:04:51;1.58;95.38
71047;SHT31;58703;48.978;8.982;2024-01-30T09:07:18;1.84;94.71
71047;SHT31;58703;48.978;8.982;2024-01-30T09:09:45;2.07;94.27
71047;SHT31;58703;48.978;8.982;2024-01-30T09:12:12;2.36;94.63
71047;SHT31;58703;48.978;8.982;2024-01-30T09:14:39;2.61;93.60
71047;SHT31;58703;48.978;8.982;2024-01-30T09:17:06;2.75;92.76
71047;SHT31;58703;48.978;8.982;2024-01-30T09:19:32;2.83;91.69
71047;SHT31;58703;48.978;8.982;2024-01-30T09:21:59;2.97;91.07
71047;SHT31;58703;48.978;8.982;2024-01-30T09:24:26;3.04;90.38
71047;SHT31;58703;48.978;8.982;2024-01-30T09:26:52;3.03;90.52
71047;SHT31;58703;48.978;8.982;2024-01-30T09:29:19;3.10;90.56
71047;SHT31;58703;48.978;8.982;2024-01-30T09:31:47;3.14;90.91
71047;SHT31;58703;48.978;8.982;2024-01-30T09:34:14;3.17;90.25
71047;SHT31;58703;48.978;8.982;2024-01-30T09:36:40;3.28;90.69
71047;SHT31;58703;48.978;8.982;2024-01-30T09:39:06;3.55;89.83
71047;SHT31;58703;48.978;8.982;2024-01-30T09:41:40;3.31;90.80
71047;SHT31;58703;48.978;8.982;2024-01-30T09:44:11;3.66;90.13
71047;SHT31;58703;48.978;8.982;2024-01-30T09:46:37;3.90;89.14
71047;SHT31;58703;48.978;8.982;2024-01-30T09:49:03;3.83;89.59
71047;SHT31;58703;48.978;8.982;2024-01-30T09:51:30;3.83;89.29
71047;SHT31;58703;48.978;8.982;2024-01-30T09:53:56;3.96;89.01
71047;SHT31;58703;48.978;8.982;2024-01-30T09:56:23;4.07;88.24
71047;SHT31;58703;48.978;8.982;2024-01-30T09:58:49;4.18;89.01
71047;SHT31;58703;48.978;8.982;2024-01-30T10:01:15;4.30;88.01
71047;SHT31;58703;48.978;8.982;2024-01-30T10:03:44;4.29;88.47
71047;SHT31;58703;48.978;8.982;2024-01-30T10:06:12;4.53;87.46
71047;SHT31;58703;48.978;8.982;2024-01-30T10:09:04;4.48;87.94
71047;SHT31;58703;48.978;8.982;2024-01-30T10:11:31;4.47;88.12
71047;SHT31;58703;48.978;8.982;2024-01-30T10:13:57;4.37;88.52
71047;SHT31;58703;48.978;8.982;2024-01-30T10:16:23;4.26;89.05
71047;SHT31;58703;48.978;8.982;2024-01-30T10:18:56;4.38;89.95
71047;SHT31;58703;48.978;8.982;2024-01-30T10:21:23;4.37;89.76
71047;SHT31;58703;48.978;8.982;2024-01-30T10:23:50;4.62;90.29
71047;SHT31;58703;48.978;8.982;2024-01-30T10:26:18;4.61;89.72
71047;SHT31;58703;48.978;8.982;2024-01-30T10:28:43;4.57;88.61
71047;SHT31;58703;48.978;8.982;2024-01-30T10:31:10;4.79;88.54
71047;SHT31;58703;48.978;8.982;2024-01-30T10:33:37;4.85;87.60
71047;SHT31;58703;48.978;8.982;2024-01-30T10:36:05;5.16;87.08
71047;SHT31;58703;48.978;8.982;2024-01-30T10:38:33;5.56;86.71
71047;SHT31;58703;48.978;8.982;2024-01-30T10:41:00;6.03;84.84
71047;SHT31;58703;48.978;8.982;2024-01-30T10:43:32;6.61;84.99
71047;SHT31;58703;48.978;8.982;2024-01-30T10:46:19;6.95;83.52
71047;SHT31;58703;48.978;8.982;2024-01-30T10:49:01;7.17;83.28
71047;SHT31;58703;48.978;8.982;2024-01-30T10:51:30;6.79;82.46
71047;SHT31;58703;48.978;8.982;2024-01-30T10:53:57;6.45;83.40
71047;SHT31;58703;48.978;8.982;2024-01-30T10:56:25;6.44;82.82
71047;SHT31;58703;48.978;8.982;2024-01-30T10:58:53;6.64;83.06
71047;SHT31;58703;48.978;8.982;2024-01-30T11:01:24;6.75;84.13
71047;SHT31;58703;48.978;8.982;2024-01-30T11:03:53;7.06;83.79
71047;SHT31;58703;48.978;8.982;2024-01-30T11:06:27;7.32;83.04
71047;SHT31;58703;48.978;8.982;2024-01-30T11:09:09;7.58;82.25
71047;SHT31;58703;48.978;8.982;2024-01-30T11:11:59;7.57;79.93
71047;SHT31;58703;48.978;8.982;2024-01-30T11:14:29;7.26;80.29
71047;SHT31;58703;48.978;8.982;2024-01-30T11:16:58;7.16;81.22
71047;SHT31;58703;48.978;8.982;2024-01-30T11:19:26;7.17;79.58
71047;SHT31;58703;48.978;8.982;2024-01-30T11:21:53;7.04;80.06
71047;SHT31;58703;48.978;8.982;2024-01-30T11:24:20;7.13;80.17
71047;SHT31;58703;48.978;8.982;2024-01-30T11:26:49;6.97;80.22
71047;SHT31;58703;48.978;8.982;2024-01-30T11:29:17;6.72;80.79
71047;SHT31;58703;48.978;8.982;2024-01-30T11:32:05;6.89;81.91
71047;SHT31;58703;48.978;8.982;2024-01-30T11:34:32;7.08;84.03
71047;SHT31;58703;48.978;8.982;2024-01-30T11:37:12;7.51;83.99
71047;SHT31;58703;48.978;8.982;2024-01-30T11:39:41;7.58;80.72
71047;SHT31;58703;48.978;8.982;2024-01-30T11:42:10;7.26;80.68
71047;SHT31;58703;48.978;8.982;2024-01-30T11:44:38;7.28;82.65
71047;SHT31;58703;48.978;8.982;2024-01-30T11:47:03;7.57;81.93
71047;SHT31;58703;48.978;8.982;2024-01-30T11:49:31;7.75;80.76
71047;SHT31;58703;48.978;8.982;2024-01-30T11:51:58;8.09;80.32
71047;SHT31;58703;48.978;8.982;2024-01-30T11:54:25;8.20;78.84
71047;SHT31;58703;48.978;8.982;2024-01-30T11:56:52;8.16;77.69
71047;SHT31;58703;48.978;8.982;2024-01-30T11:59:19;8.07;78.30
71047;SHT31;58703;48.978;8.982;2024-01-30T12:01:46;8.10;78.36
71047;SHT31;58703;48.978;8.982;2024-01-30T12:04:13;7.95;79.20
71047;SHT31;58703;48.978;8.982;2024-01-30T12:06:39;7.98;79.06
71047;SHT31;58703;48.978;8.982;2024-01-30T12:09:07;8.06;78.30
71047;SHT31;58703;48.978;8.982;2024-01-30T12:11:48;8.29;77.49
71047;SHT31;58703;48.978;8.982;2024-01-30T12:14:17;8.61;76.79
71047;SHT31;58703;48.978;8.982;2024-01-30T12:16:47;8.91;75.82
71047;SHT31;58703;48.978;8.982;2024-01-30T12:19:22;9.32;75.23
71047;SHT31;58703;48.978;8.982;2024-01-30T12:21:58;9.69;75.26
71047;SHT31;58703;48.978;8.982;2024-01-30T12:24:28;9.94;73.94
71047;SHT31;58703;48.978;8.982;2024-01-30T12:26:58;9.62;74.85
71047;SHT31;58703;48.978;8.982;2024-01-30T12:29:26;9.99;74.13
71047;SHT31;58703;48.978;8.982;2024-01-30T12:31:55;10.55;73.05
71047;SHT31;58703;48.978;8.982;2024-01-30T12:34:24;10.86;72.39
71047;SHT31;58703;48.978;8.982;2024-01-30T12:36:52;10.92;70.29
71047;SHT31;58703;48.978;8.982;2024-01-30T12:39:18;11.46;69.35
71047;SHT31;58703;48.978;8.982;2024-01-30T12:41:45;11.67;68.96
71047;SHT31;58703;48.978;8.982;2024-01-30T12:44:14;10.95;68.92
71047;SHT31;58703;48.978;8.982;2024-01-30T12:46:41;10.85;67.29
71047;SHT31;58703;48.978;8.982;2024-01-30T12:49:08;11.20;66.44
71047;SHT31;58703;48.978;8.982;2024-01-30T12:51:34;11.42;65.95
71047;SHT31;58703;48.978;8.982;2024-01-30T12:54:14;12.02;63.65
71047;SHT31;58703;48.978;8.982;2024-01-30T12:56:42;12.24;65.71
71047;SHT31;58703;48.978;8.982;2024-01-30T12:59:07;12.46;65.40
71047;SHT31;58703;48.978;8.982;2024-01-30T13:01:33;13.27;64.38
71047;SHT31;58703;48.978;8.982;2024-01-30T13:04:01;12.50;63.92
71047;SHT31;58703;48.978;8.982;2024-01-30T13:06:28;13.38;65.50
71047;SHT31;58703;48.978;8.982;2024-01-30T13:08:56;12.72;63.43
71047;SHT31;58703;48.978;8.982;2024-01-30T13:11:23;12.89;64.36
71047;SHT31;58703;48.978;8.982;2024-01-30T13:13:52;12.83;63.09
71047;SHT31;58703;48.978;8.982;2024-01-30T13:16:19;12.63;62.56
71047;SHT31;58703;48.978;8.982;2024-01-30T13:18:46;12.50;60.43
71047;SHT31;58703;48.978;8.982;2024-01-30T13:21:13;12.90;62.68
71047;SHT31;58703;48.978;8.982;2024-01-30T13:23:40;13.04;65.19
71047;SHT31;58703;48.978;8.982;2024-01-30T13:26:06;13.51;64.43
71047;SHT31;58703;48.978;8.982;2024-01-30T13:28:34;13.70;62.41
71047;SHT31;58703;48.978;8.982;2024-01-30T13:31:01;12.66;63.14
71047;SHT31;58703;48.978;8.982;2024-01-30T13:33:28;12.86;64.64
71047;SHT31;58703;48.978;8.982;2024-01-30T13:35:55;13.11;64.05
71047;SHT31;58703;48.978;8.982;2024-01-30T13:38:22;13.44;64.33
71047;SHT31;58703;48.978;8.982;2024-01-30T13:40:49;13.72;62.81
71047;SHT31;58703;48.978;8.982;2024-01-30T13:43:16;13.94;62.69
71047;SHT31;58703;48.978;8.982;2024-01-30T13:45:43;13.75;61.97
71047;SHT31;58703;48.978;8.982;2024-01-30T13:48:09;13.77;60.38
71047;SHT31;58703;48.978;8.982;2024-01-30T13:50:36;13.50;62.17
71047;SHT31;58703;48.978;8.982;2024-01-30T13:53:05;13.28;61.84
71047;SHT31;58703;48.978;8.982;2024-01-30T13:55:33;12.62;64.01
71047;SHT31;58703;48.978;8.982;2024-01-30T13:57:59;12.85;63.13
71047;SHT31;58703;48.978;8.982;2024-01-30T14:00:25;12.97;65.06
71047;SHT31;58703;48.978;8.982;2024-01-30T14:02:52;12.52;62.97
71047;SHT31;58703;48.978;8.982;2024-01-30T14:05:25;12.95;62.85
71047;SHT31;58703;48.978;8.982;2024-01-30T14:07:55;13.03;62.95
71047;SHT31;58703;48.978;8.982;2024-01-30T14:10:22;12.95;63.39
71047;SHT31;58703;48.978;8.982;2024-01-30T14:12:48;12.55;65.34
71047;SHT31;58703;48.978;8.982;2024-01-30T14:15:15;12.86;65.53
71047;SHT31;58703;48.978;8.982;2024-01-30T14:17:45;12.95;64.45
71047;SHT31;58703;48.978;8.982;2024-01-30T14:20:15;12.93;64.86
71047;SHT31;58703;48.978;8.982;2024-01-30T14:22:45;12.65;64.16
71047;SHT31;58703;48.978;8.982;2024-01-30T14:25:11;12.32;64.55
71047;SHT31;58703;48.978;8.982;2024-01-30T14:27:39;12.11;66.46
71047;SHT31;58703;48.978;8.982;2024-01-30T14:30:06;11.93;65.96
71047;SHT31;58703;48.978;8.982;2024-01-30T14:32:36;11.93;65.71
71047;SHT31;58703;48.978;8.982;2024-01-30T14:35:06;11.67;66.28
71047;SHT31;58703;48.978;8.982;2024-01-30T14:37:31;11.33;67.25
71047;SHT31;58703;48.978;8.982;2024-01-30T14:39:58;10.99;68.28
71047;SHT31;58703;48.978;8.982;2024-01-30T14:42:25;10.86;69.63
71047;SHT31;58703;48.978;8.982;2024-01-30T14:44:52;10.78;68.51
71047;SHT31;58703;48.978;8.982;2024-01-30T14:47:19;11.13;69.16
71047;SHT31;58703;48.978;8.982;2024-01-30T14:49:44;11.59;72.49
71047;SHT31;58703;48.978;8.982;2024-01-30T14:52:11;11.36;69.83
71047;SHT31;58703;48.978;8.982;2024-01-30T14:54:37;10.75;70.88
71047;SHT31;58703;48.978;8.982;2024-01-30T14:57:05;10.58;71.18
71047;SHT31;58703;48.978;8.982;2024-01-30T14:59:32;10.42;71.97
71047;SHT31;58703;48.978;8.982;2024-01-30T15:02:01;10.55;72.57
71047;SHT31;58703;48.978;8.982;2024-01-30T15:04:27;10.72;73.58
71047;SHT31;58703;48.978;8.982;2024-01-30T15:06:54;10.71;72.81
71047;SHT31;58703;48.978;8.982;2024-01-30T15:09:21;10.81;73.58
71047;SHT31;58703;48.978;8.982;2024-01-30T15:11:49;10.31;75.14
71047;SHT31;58703;48.978;8.982;2024-01-30T15:14:18;10.03;76.08
71047;SHT31;58703;48.978;8.982;2024-01-30T15:16:44;9.86;77.05
71047;SHT31;58703;48.978;8.982;2024-01-30T15:19:11;9.58;78.95
71047;SHT31;58703;48.978;8.982;2024-01-30T15:21:38;9.49;78.60
71047;SHT31;58703;48.978;8.982;2024-01-30T15:24:05;9.55;77.22
71047;SHT31;58703;48.978;8.982;2024-01-30T15:26:32;9.75;77.82
71047;SHT31;58703;48.978;8.982;2024-01-30T15:28:58;9.75;77.67
71047;SHT31;58703;48.978;8.982;2024-01-30T15:31:25;9.75;76.79
71047;SHT31;58703;48.978;8.982;2024-01-30T15:33:51;9.94;77.85
71047;SHT31;58703;48.978;8.982;2024-01-30T15:36:18;9.75;77.60
71047;SHT31;58703;48.978;8.982;2024-01-30T15:38:44;9.67;78.97